Time;durP1;ratioP1;P1;durP2;ratioP2;P2;SDS_P1;SDS_P2;PMS_P1;PMS_P2;Temp;Humidity;BMP_temperature;BMP_pressure;BME280_temperature;BME280_humidity;BME280_pressure;Samples;Min_cycle;Max_cycle;Signal;HPM_P1;HPM_P2
2022/09/30 00:01:36;;;;;;;10.73;8.73;;;10.50;1.00;;;;;;4990618;28;20487;-64
2022/09/30 00:04:03;;;;;;;11.60;9.57;;;10.50;1.00;;;;;;4990714;28;20412;-65
2022/09/30 00:06:30;;;;;;;10.37;9.10;;;10.40;1.00;;;;;;4990955;28;20762;-64
2022/09/30 00:08:56;;;;;;;9.83;8.93;;;10.40;1.00;;;;;;4990864;28;20412;-65
2022/09/30 00:11:28;;;;;;;13.37;11.97;;;10.50;1.00;;;;;;4990261;28;20433;-64
2022/09/30 00:13:56;;;;;;;11.43;10.30;;;10.60;1.00;;;;;;4990383;28;20439;-65
2022/09/30 00:16:23;;;;;;;12.40;10.57;;;10.60;1.00;;;;;;4991085;28;20808;-64
2022/09/30 00:18:49;;;;;;;12.47;11.10;;;10.60;1.00;;;;;;4990682;28;20905;-64
2022/09/30 00:21:16;;;;;;;12.57;11.20;;;10.60;1.00;;;;;;4988839;28;20956;-64
2022/09/30 00:23:42;;;;;;;11.93;10.73;;;10.70;1.00;;;;;;4989400;28;20412;-65
2022/09/30 00:26:12;;;;;;;11.70;10.60;;;10.70;1.00;;;;;;4990811;28;20559;-65
2022/09/30 00:28:39;;;;;;;12.43;10.17;;;10.80;1.00;;;;;;4990118;28;20404;-65
2022/09/30 00:31:08;;;;;;;11.80;10.60;;;10.80;1.00;;;;;;4989158;28;20603;-65
2022/09/30 00:33:34;;;;;;;12.40;11.17;;;10.70;1.00;;;;;;4990528;28;20416;-66
2022/09/30 00:36:01;;;;;;;11.07;9.97;;;10.70;1.00;;;;;;4990665;28;20428;-65
2022/09/30 00:38:27;;;;;;;11.70;10.50;;;10.70;1.00;;;;;;4990337;28;20408;-65
2022/09/30 00:40:52;;;;;;;13.50;11.00;;;10.60;1.00;;;;;;4989910;28;20627;-66
2022/09/30 00:43:41;;;;;;;11.00;9.90;;;10.40;1.00;;;;;;4990101;28;20193;-66
2022/09/30 00:46:25;;;;;;;11.87;10.67;;;10.40;1.00;;;;;;4990483;28;20207;-66
2022/09/30 00:48:53;;;;;;;12.33;11.10;;;10.50;1.00;;;;;;4990392;28;20410;-65
2022/09/30 00:51:42;;;;;;;12.33;11.00;;;10.50;1.00;;;;;;4989880;28;20400;-66
2022/09/30 00:54:22;;;;;;;11.40;10.23;;;10.40;1.00;;;;;;4986909;28;20645;-66
2022/09/30 00:56:54;;;;;;;11.90;10.70;;;10.50;1.00;;;;;;4990854;28;20974;-66
2022/09/30 00:59:23;;;;;;;13.67;12.33;;;10.50;1.00;;;;;;4989639;28;20401;-66
2022/09/30 01:01:48;;;;;;;13.60;12.10;;;10.50;1.00;;;;;;4990126;28;20423;-65
2022/09/30 01:04:19;;;;;;;12.60;11.40;;;10.50;1.00;;;;;;4990135;28;20435;-65
2022/09/30 01:06:45;;;;;;;15.50;11.73;;;10.60;1.00;;;;;;4990563;28;20208;-66
2022/09/30 01:09:11;;;;;;;11.80;10.60;;;10.60;1.00;;;;;;4990415;28;20900;-65
2022/09/30 01:11:37;;;;;;;12.97;11.67;;;10.70;1.00;;;;;;4989525;28;20415;-66
2022/09/30 01:14:08;;;;;;;12.50;11.20;;;10.70;1.00;;;;;;4989618;28;20169;-65
2022/09/30 01:16:52;;;;;;;12.03;10.93;;;10.70;1.00;;;;;;4990205;28;20204;-65
2022/09/30 01:19:57;;;;;;;13.23;11.93;;;10.60;1.00;;;;;;4990008;28;20952;-66
2022/09/30 01:22:35;;;;;;;11.77;10.67;;;10.60;1.00;;;;;;4989625;28;20416;-65
2022/09/30 01:25:53;;;;;;;12.90;11.37;;;10.50;1.00;;;;;;4990634;28;20407;-66
2022/09/30 01:28:24;;;;;;;11.47;10.27;;;10.60;1.00;;;;;;4979777;28;20439;-66
2022/09/30 01:31:17;;;;;;;11.43;10.33;;;10.60;1.00;;;;;;4989207;28;20401;-65
2022/09/30 01:34:22;;;;;;;12.00;10.80;;;10.70;1.00;;;;;;4989786;28;20905;-65
2022/09/30 01:37:06;;;;;;;14.17;10.50;;;10.60;1.00;;;;;;4978566;28;20490;-66
2022/09/30 01:39:49;;;;;;;11.00;9.90;;;10.40;1.00;;;;;;4989702;28;20422;-65
2022/09/30 01:42:24;;;;;;;12.63;11.10;;;10.20;1.00;;;;;;4991849;28;20487;-66
2022/09/30 01:44:57;;;;;;;12.97;11.67;;;10.30;1.00;;;;;;4992852;28;20748;-65
2022/09/30 01:47:30;;;;;;;12.70;11.43;;;10.40;1.00;;;;;;4993126;28;20464;-65
2022/09/30 01:50:08;;;;;;;12.30;10.60;;;10.40;1.00;;;;;;4993593;28;20400;-65
2022/09/30 01:52:34;;;;;;;12.67;11.37;;;10.40;1.00;;;;;;4992797;28;20502;-66
2022/09/30 01:55:06;;;;;;;12.70;11.40;;;10.30;1.00;;;;;;4993441;28;20492;-66
2022/09/30 01:57:45;;;;;;;11.10;10.00;;;10.20;1.00;;;;;;4992756;28;20228;-66
2022/09/30 02:00:12;;;;;;;13.80;10.03;;;10.20;1.00;;;;;;4993322;28;20412;-65
2022/09/30 02:02:58;;;;;;;10.43;9.43;;;10.20;1.00;;;;;;4992782;28;20404;-66
2022/09/30 02:05:38;;;;;;;10.93;9.83;;;10.20;1.00;;;;;;4993154;28;20408;-65
2022/09/30 02:08:11;;;;;;;10.10;9.10;;;10.20;1.00;;;;;;4993148;28;20906;-66
2022/09/30 02:10:56;;;;;;;10.93;9.53;;;10.30;1.00;;;;;;4992825;28;20396;-65
2022/09/30 02:13:31;;;;;;;10.90;9.87;;;10.30;1.00;;;;;;4992952;28;20392;-66
2022/09/30 02:16:01;;;;;;;16.50;9.73;;;10.30;1.00;;;;;;4993433;28;20416;-66
2022/09/30 02:18:40;;;;;;;9.80;8.80;;;10.30;1.00;;;;;;4993072;28;20908;-65
2022/09/30 02:21:07;;;;;;;13.93;9.57;;;10.30;1.00;;;;;;4992538;28;20411;-66
2022/09/30 02:23:39;;;;;;;12.90;9.10;;;10.30;1.00;;;;;;4992958;28;20408;-64
2022/09/30 02:26:11;;;;;;;11.27;9.97;;;10.20;1.00;;;;;;4993230;28;20463;-65
2022/09/30 02:28:43;;;;;;;12.00;10.60;;;10.10;1.00;;;;;;4992379;28;20440;-64
2022/09/30 02:31:10;;;;;;;11.60;9.77;;;10.00;1.00;;;;;;4992628;28;20538;-64
2022/09/30 02:33:45;;;;;;;11.50;10.23;;;10.10;1.00;;;;;;4992905;28;20455;-65
2022/09/30 02:36:23;;;;;;;10.73;9.73;;;10.10;1.00;;;;;;4992640;28;20416;-65
2022/09/30 02:39:01;;;;;;;15.90;9.60;;;10.20;1.00;;;;;;4992650;28;20412;-64
2022/09/30 02:41:31;;;;;;;16.87;10.00;;;10.20;1.00;;;;;;4992331;28;20433;-65
2022/09/30 02:44:01;;;;;;;30.33;19.40;;;10.20;1.00;;;;;;4991814;28;20415;-65
2022/09/30 02:46:29;;;;;;;25.67;17.40;;;10.30;1.00;;;;;;4992812;28;20539;-64
2022/09/30 02:49:21;;;;;;;18.23;13.43;;;10.30;1.00;;;;;;4992325;28;20405;-64
2022/09/30 02:52:10;;;;;;;18.70;12.80;;;10.20;1.00;;;;;;4992001;28;20780;-65
2022/09/30 02:55:10;;;;;;;12.43;10.80;;;10.20;1.00;;;;;;4992274;28;20842;-64
2022/09/30 02:57:41;;;;;;;11.27;10.07;;;10.20;1.00;;;;;;4972341;28;20467;-64
2022/09/30 03:00:07;;;;;;;11.10;10.10;;;10.20;1.00;;;;;;4992832;28;20451;-64
2022/09/30 03:02:34;;;;;;;12.20;10.20;;;10.10;1.00;;;;;;4992008;28;20820;-64
2022/09/30 03:05:00;;;;;;;12.57;9.23;;;10.20;1.00;;;;;;4992854;28;20870;-65
2022/09/30 03:07:26;;;;;;;16.77;10.70;;;10.20;1.00;;;;;;4992061;28;20460;-65
2022/09/30 03:09:57;;;;;;;13.37;10.70;;;10.20;1.00;;;;;;4992529;28;20416;-65
2022/09/30 03:12:41;;;;;;;11.17;10.07;;;10.20;1.00;;;;;;4991315;28;20833;-65
2022/09/30 03:15:19;;;;;;;12.10;9.70;;;10.20;1.00;;;;;;4992513;28;20400;-64
2022/09/30 03:18:04;;;;;;;12.37;10.00;;;10.20;1.00;;;;;;4992055;28;20439;-65
2022/09/30 03:20:36;;;;;;;15.37;10.80;;;10.20;1.00;;;;;;4991358;28;20927;-64
2022/09/30 03:23:13;;;;;;;11.60;10.20;;;10.10;1.00;;;;;;4991948;28;20779;-65
2022/09/30 03:25:59;;;;;;;14.67;9.97;;;10.20;1.00;;;;;;4992122;28;20423;-65
2022/09/30 03:28:35;;;;;;;14.87;10.60;;;10.20;1.00;;;;;;4991148;28;20980;-66
2022/09/30 03:31:13;;;;;;;33.40;11.83;;;10.20;1.00;;;;;;4991232;28;20412;-65
2022/09/30 03:33:51;;;;;;;17.73;11.27;;;9.90;1.00;;;;;;4991577;28;20439;-66
2022/09/30 03:36:28;;;;;;;13.40;10.70;;;9.60;1.00;;;;;;4992861;28;20461;-66
2022/09/30 03:39:12;;;;;;;13.07;10.80;;;9.60;1.00;;;;;;4991804;28;20801;-65
2022/09/30 03:41:51;;;;;;;14.83;11.50;;;9.70;1.00;;;;;;4991130;28;20405;-65
2022/09/30 03:44:44;;;;;;;10.90;9.80;;;9.80;1.00;;;;;;4991161;28;20404;-66
2022/09/30 03:47:13;;;;;;;19.80;10.03;;;9.80;1.00;;;;;;4991433;28;20522;-65
2022/09/30 03:49:44;;;;;;;10.27;9.20;;;9.80;1.00;;;;;;4991741;28;20917;-65
2022/09/30 03:52:12;;;;;;;14.47;11.00;;;9.80;1.00;;;;;;4991097;28;20396;-65
2022/09/30 03:54:57;;;;;;;13.67;10.07;;;9.80;1.00;;;;;;4990030;28;20420;-65
2022/09/30 03:57:27;;;;;;;11.80;9.87;;;9.80;1.00;;;;;;4990968;28;20436;-65
2022/09/30 03:59:53;;;;;;;11.30;9.87;;;9.90;1.00;;;;;;4991174;28;20713;-65
2022/09/30 04:02:18;;;;;;;11.93;9.60;;;9.80;1.00;;;;;;4990628;28;20416;-65
2022/09/30 04:04:44;;;;;;;13.70;9.43;;;9.80;1.00;;;;;;4990990;28;20215;-65
2022/09/30 04:07:10;;;;;;;10.23;9.13;;;9.90;1.00;;;;;;4990334;28;20276;-66
2022/09/30 04:09:37;;;;;;;19.43;10.50;;;9.90;1.00;;;;;;4991119;28;20181;-66
2022/09/30 04:12:03;;;;;;;11.33;10.20;;;9.80;1.00;;;;;;4990163;28;20446;-66
2022/09/30 04:14:29;;;;;;;23.70;10.67;;;9.80;1.00;;;;;;4990481;28;20419;-65
2022/09/30 04:16:54;;;;;;;11.30;9.50;;;9.70;1.00;;;;;;4990952;28;20739;-65
2022/09/30 04:19:20;;;;;;;29.90;10.33;;;9.60;1.00;;;;;;4989858;28;20177;-65
2022/09/30 04:21:46;;;;;;;14.90;11.30;;;9.30;1.00;;;;;;4989616;28;20180;-65
2022/09/30 04:24:11;;;;;;;14.97;9.97;;;9.30;1.00;;;;;;4989743;28;20542;-66
2022/09/30 04:26:37;;;;;;;13.60;9.60;;;9.50;1.00;;;;;;4989856;28;20200;-65
2022/09/30 04:29:03;;;;;;;14.10;10.80;;;9.60;1.00;;;;;;4990040;28;20177;-65
2022/09/30 04:31:28;;;;;;;14.10;9.80;;;9.70;1.00;;;;;;4988741;28;20172;-65
2022/09/30 04:33:55;;;;;;;10.03;8.97;;;9.70;1.00;;;;;;4989756;28;20355;-65
2022/09/30 04:36:21;;;;;;;16.70;10.90;;;9.60;1.00;;;;;;4989496;28;20567;-65
2022/09/30 04:38:47;;;;;;;15.03;9.50;;;9.70;1.00;;;;;;4997670;28;20440;-66
2022/09/30 04:41:16;;;;;;;16.73;9.93;;;9.70;1.00;;;;;;4995763;28;20187;-66
2022/09/30 04:43:45;;;;;;;13.23;10.20;;;9.70;1.00;;;;;;4988430;28;20267;-65
2022/09/30 04:46:12;;;;;;;11.90;9.63;;;9.70;1.00;;;;;;4989695;28;20459;-65
2022/09/30 04:48:38;;;;;;;11.87;10.10;;;9.60;1.00;;;;;;4986870;28;20440;-65
2022/09/30 04:51:04;;;;;;;11.93;8.77;;;9.70;1.00;;;;;;4988970;28;20547;-66
2022/09/30 04:53:29;;;;;;;15.43;10.00;;;9.70;1.00;;;;;;4989449;28;20211;-65
2022/09/30 04:56:00;;;;;;;22.67;10.30;;;9.70;1.00;;;;;;4989556;28;20197;-65
2022/09/30 04:58:26;;;;;;;18.03;11.83;;;9.80;1.00;;;;;;4988616;28;20223;-65
2022/09/30 05:01:06;;;;;;;21.57;10.93;;;9.80;1.00;;;;;;4989009;28;20445;-67
2022/09/30 05:03:33;;;;;;;12.57;10.73;;;9.80;1.00;;;;;;4989050;28;20420;-65
2022/09/30 05:08:32;;;;;;;12.00;8.60;;;10.00;1.00;;;;;;5012531;28;20455;-67
2022/09/30 05:11:04;;;;;;;26.00;10.40;;;9.90;1.00;;;;;;5013024;28;20791;-65
2022/09/30 05:13:35;;;;;;;9.60;8.60;;;9.90;1.00;;;;;;5014917;28;20510;-67
2022/09/30 05:16:01;;;;;;;14.80;9.77;;;9.60;1.00;;;;;;5012634;28;20411;-67
2022/09/30 05:18:27;;;;;;;10.47;8.23;;;9.60;1.00;;;;;;5014526;28;20421;-69
2022/09/30 05:20:56;;;;;;;14.53;11.07;;;9.60;1.00;;;;;;5014533;28;20411;-68
2022/09/30 05:23:23;;;;;;;10.90;8.93;;;9.60;1.00;;;;;;5028361;28;20413;-65
2022/09/30 05:25:50;;;;;;;9.50;7.93;;;9.60;1.00;;;;;;5027004;28;20423;-68
2022/09/30 05:28:17;;;;;;;12.20;8.03;;;9.60;1.00;;;;;;5013363;28;22278;-67
2022/09/30 05:30:44;;;;;;;11.30;7.90;;;9.60;1.00;;;;;;5015126;28;20423;-67
2022/09/30 05:33:11;;;;;;;34.77;9.77;;;9.60;1.00;;;;;;5054625;28;20426;-66
2022/09/30 05:35:38;;;;;;;21.00;8.73;;;9.50;1.00;;;;;;5018311;28;20918;-67
2022/09/30 05:38:04;;;;;;;19.17;10.37;;;9.20;1.00;;;;;;5021631;28;20794;-66
2022/09/30 05:40:31;;;;;;;23.63;9.77;;;9.30;1.00;;;;;;5025817;28;20418;-68
2022/09/30 05:42:57;;;;;;;32.80;11.90;;;9.50;1.00;;;;;;5030482;28;20171;-63
2022/09/30 05:45:23;;;;;;;22.90;10.20;;;9.60;1.00;;;;;;5013590;28;20891;-66
2022/09/30 05:47:53;;;;;;;17.50;9.27;;;9.60;1.00;;;;;;5012940;28;20534;-65
2022/09/30 05:50:20;;;;;;;30.73;11.90;;;9.50;1.00;;;;;;5012603;28;20414;-65
2022/09/30 05:52:46;;;;;;;35.17;10.53;;;9.60;1.00;;;;;;5013230;28;20435;-65
2022/09/30 05:55:12;;;;;;;20.17;11.10;;;9.60;1.00;;;;;;5018712;28;20430;-62
2022/09/30 05:57:38;;;;;;;29.33;12.27;;;9.80;1.00;;;;;;5015478;28;21110;-64
2022/09/30 06:00:06;;;;;;;17.37;9.00;;;9.80;1.00;;;;;;5019838;28;20532;-64
2022/09/30 06:02:32;;;;;;;21.60;9.40;;;9.90;1.00;;;;;;5013548;28;20657;-65
2022/09/30 06:04:58;;;;;;;16.03;8.40;;;9.70;1.00;;;;;;5028094;28;20804;-64
2022/09/30 06:07:23;;;;;;;10.53;8.50;;;9.50;1.00;;;;;;5025274;28;20466;-64
2022/09/30 06:09:49;;;;;;;14.27;8.33;;;9.40;1.00;;;;;;5013240;28;20279;-66
2022/09/30 06:12:15;;;;;;;10.13;9.03;;;9.30;1.00;;;;;;5022821;28;20168;-65
2022/09/30 06:14:41;;;;;;;20.07;8.60;;;9.30;1.00;;;;;;5025651;28;20239;-66
2022/09/30 06:17:07;;;;;;;21.43;9.87;;;9.40;1.00;;;;;;5012850;28;20222;-65
2022/09/30 06:19:33;;;;;;;9.70;8.07;;;9.30;1.00;;;;;;5012802;28;20204;-65
2022/09/30 06:21:59;;;;;;;14.53;9.70;;;9.40;1.00;;;;;;5012163;28;20458;-65
2022/09/30 06:24:25;;;;;;;21.83;9.87;;;9.50;1.00;;;;;;5011569;28;20189;-66
2022/09/30 06:26:50;;;;;;;11.87;8.97;;;9.60;1.00;;;;;;5019520;28;20461;-65
2022/09/30 06:29:16;;;;;;;9.50;7.53;;;9.40;1.00;;;;;;5013876;28;20174;-63
2022/09/30 06:31:42;;;;;;;17.33;8.50;;;9.30;1.00;;;;;;5030423;28;20183;-66
2022/09/30 06:34:09;;;;;;;9.60;7.73;;;9.30;1.00;;;;;;5016280;28;20176;-67
2022/09/30 06:36:34;;;;;;;12.13;8.17;;;9.30;1.00;;;;;;5012605;28;20572;-66
2022/09/30 06:39:01;;;;;;;10.60;8.10;;;9.20;1.00;;;;;;5012468;28;20411;-67
2022/09/30 06:41:27;;;;;;;12.20;8.10;;;9.20;1.00;;;;;;5011038;28;20625;-66
2022/09/30 06:43:54;;;;;;;11.90;7.47;;;9.20;1.00;;;;;;5051991;28;20761;-66
2022/09/30 06:46:22;;;;;;;12.60;9.20;;;9.00;1.00;;;;;;5016355;28;20494;-66
2022/09/30 06:48:51;;;;;;;16.00;8.00;;;9.00;1.00;;;;;;5019575;28;20420;-62
2022/09/30 06:51:17;;;;;;;10.17;7.63;;;9.00;1.00;;;;;;5023905;28;20474;-65
2022/09/30 06:53:42;;;;;;;28.77;8.50;;;8.90;1.00;;;;;;5018937;28;20466;-65
2022/09/30 06:56:08;;;;;;;25.83;8.20;;;8.80;1.00;;;;;;5020529;28;20199;-67
2022/09/30 06:58:34;;;;;;;31.77;8.13;;;8.80;1.00;;;;;;5021639;28;20195;-65
2022/09/30 07:01:05;;;;;;;13.53;7.50;;;8.60;1.00;;;;;;5026631;28;20661;-67
2022/09/30 07:03:33;;;;;;;24.53;7.40;;;8.50;1.00;;;;;;5016764;28;20656;-67
2022/09/30 07:06:01;;;;;;;20.17;8.13;;;8.40;1.00;;;;;;5017072;28;20839;-66
2022/09/30 07:08:30;;;;;;;30.10;9.57;;;8.30;1.00;;;;;;5019582;28;20435;-66
2022/09/30 07:11:13;;;;;;;14.17;7.43;;;8.40;1.00;;;;;;5017203;28;20423;-65
2022/09/30 07:13:41;;;;;;;13.40;8.00;;;8.70;1.00;;;;;;5030925;28;20390;-68
2022/09/30 07:16:08;;;;;;;16.90;8.43;;;8.80;1.00;;;;;;5018641;28;20407;-67
2022/09/30 07:18:33;;;;;;;14.87;9.10;;;9.10;1.00;;;;;;5011456;28;20477;-66
2022/09/30 07:20:59;;;;;;;28.73;10.07;;;9.40;1.00;;;;;;5018383;28;20425;-66
2022/09/30 07:23:25;;;;;;;9.33;7.03;;;9.50;1.00;;;;;;5024103;28;20184;-67
2022/09/30 07:25:56;;;;;;;10.47;7.43;;;9.30;1.00;;;;;;5031367;28;20206;-64
2022/09/30 07:28:29;;;;;;;17.27;8.03;;;9.30;1.00;;;;;;5018323;28;20243;-65
2022/09/30 07:30:55;;;;;;;18.53;7.80;;;9.50;1.00;;;;;;5018256;28;20431;-64
2022/09/30 07:33:22;;;;;;;14.87;9.27;;;9.50;1.00;;;;;;5022764;28;20464;-66
2022/09/30 07:35:55;;;;;;;21.67;8.60;;;9.40;1.00;;;;;;5031659;28;20433;-68
2022/09/30 07:38:23;;;;;;;13.90;7.80;;;9.20;1.00;;;;;;5031145;28;20606;-67
2022/09/30 07:41:15;;;;;;;19.40;9.20;;;9.10;1.00;;;;;;5022917;28;20435;-67
2022/09/30 07:43:45;;;;;;;11.70;7.70;;;9.40;1.00;;;;;;5004353;28;20465;-68
2022/09/30 07:46:14;;;;;;;14.47;9.50;;;9.50;1.00;;;;;;5021920;28;20463;-67
2022/09/30 07:48:43;;;;;;;13.30;9.17;;;9.30;1.00;;;;;;5031375;28;20402;-67
2022/09/30 07:51:26;;;;;;;14.30;9.43;;;9.20;1.00;;;;;;5030703;28;20430;-66
2022/09/30 07:53:54;;;;;;;20.93;14.43;;;8.90;1.00;;;;;;5031245;28;20410;-68
2022/09/30 07:56:21;;;;;;;16.73;9.87;;;8.80;1.00;;;;;;5031264;28;20425;-66
2022/09/30 07:58:47;;;;;;;12.33;9.53;;;8.80;1.00;;;;;;5031198;28;20406;-66
2022/09/30 08:01:13;;;;;;;11.90;8.83;;;8.80;1.00;;;;;;5031007;28;20406;-66
2022/09/30 08:03:45;;;;;;;11.90;7.87;;;8.90;1.00;;;;;;5030821;28;20409;-66
2022/09/30 08:06:15;;;;;;;16.53;11.03;;;9.00;1.00;;;;;;5030985;28;20478;-66
2022/09/30 08:08:43;;;;;;;22.87;11.63;;;8.90;1.00;;;;;;5030948;28;20465;-67
2022/09/30 08:11:09;;;;;;;17.50;10.23;;;9.10;1.00;;;;;;5036569;28;20438;-68
2022/09/30 08:13:35;;;;;;;14.40;10.43;;;9.40;1.00;;;;;;5032739;28;20757;-66
2022/09/30 08:16:01;;;;;;;13.03;9.13;;;9.40;1.00;;;;;;5030394;28;20407;-68
2022/09/30 08:18:27;;;;;;;16.90;9.17;;;9.50;1.00;;;;;;5030298;28;20176;-67
2022/09/30 08:20:53;;;;;;;14.70;9.03;;;9.70;1.00;;;;;;5030024;28;20381;-67
2022/09/30 08:23:19;;;;;;;12.20;8.33;;;9.80;1.00;;;;;;5031306;28;20309;-68
2022/09/30 08:25:45;;;;;;;15.00;9.00;;;10.00;1.00;;;;;;5032290;28;20478;-66
2022/09/30 08:28:11;;;;;;;15.17;9.50;;;10.10;1.00;;;;;;5031725;28;20207;-67
2022/09/30 08:30:37;;;;;;;11.40;7.77;;;10.00;1.00;;;;;;5030660;28;20422;-67
2022/09/30 08:33:03;;;;;;;60.53;13.40;;;10.00;1.00;;;;;;5032111;28;20413;-66
2022/09/30 08:35:29;;;;;;;12.40;7.83;;;10.00;1.00;;;;;;5033105;28;20433;-67
2022/09/30 08:37:55;;;;;;;17.63;10.57;;;9.90;1.00;;;;;;5032627;28;20426;-69
2022/09/30 08:40:25;;;;;;;14.93;10.53;;;10.00;1.00;;;;;;5030600;28;20249;-67
2022/09/30 08:43:20;;;;;;;13.40;10.50;;;10.00;1.00;;;;;;5030013;28;20179;-66
2022/09/30 08:45:54;;;;;;;12.80;8.50;;;9.90;1.00;;;;;;5008595;28;20427;-67
2022/09/30 08:49:02;;;;;;;14.97;9.77;;;9.90;1.00;;;;;;5029902;28;20461;-68
2022/09/30 08:51:48;;;;;;;15.07;9.20;;;9.90;1.00;;;;;;5025669;28;20421;-65
2022/09/30 08:54:19;;;;;;;18.17;9.20;;;9.70;1.00;;;;;;5030220;28;20418;-68
2022/09/30 08:56:46;;;;;;;14.13;9.20;;;9.80;1.00;;;;;;5031054;28;20430;-68
2022/09/30 08:59:33;;;;;;;29.63;9.20;;;9.80;1.00;;;;;;5031421;28;20476;-68
2022/09/30 09:02:19;;;;;;;25.83;11.77;;;9.90;1.00;;;;;;5029415;28;20402;-66
2022/09/30 09:04:46;;;;;;;12.10;8.67;;;9.80;1.00;;;;;;5030570;28;20430;-68
2022/09/30 09:07:31;;;;;;;13.50;9.00;;;10.00;1.00;;;;;;5029866;28;20473;-68
2022/09/30 09:10:26;;;;;;;16.60;10.67;;;9.90;1.00;;;;;;5030435;28;20407;-68
2022/09/30 09:12:58;;;;;;;13.73;8.53;;;9.80;1.00;;;;;;5028055;28;20820;-69
2022/09/30 09:15:27;;;;;;;15.60;8.90;;;9.80;1.00;;;;;;5030071;28;20417;-68
2022/09/30 09:18:17;;;;;;;14.67;9.50;;;9.90;1.00;;;;;;5029943;28;20513;-68
2022/09/30 09:21:15;;;;;;;12.30;8.30;;;9.90;1.00;;;;;;5029222;28;20842;-68
2022/09/30 09:23:41;;;;;;;13.97;9.30;;;9.80;1.00;;;;;;5012158;28;20422;-68
2022/09/30 09:26:11;;;;;;;12.67;9.73;;;10.00;1.00;;;;;;5029748;28;20418;-67
2022/09/30 09:28:50;;;;;;;15.60;10.17;;;9.70;1.00;;;;;;5028849;28;20422;-69
2022/09/30 09:31:18;;;;;;;13.77;9.00;;;9.80;1.00;;;;;;5028993;28;20964;-69
2022/09/30 09:33:46;;;;;;;18.50;13.00;;;9.90;1.00;;;;;;5029384;28;20407;-68
2022/09/30 09:36:33;;;;;;;13.47;9.20;;;9.80;1.00;;;;;;5029962;28;20497;-68
2022/09/30 09:39:14;;;;;;;18.67;10.73;;;9.90;1.00;;;;;;5029739;28;20410;-68
2022/09/30 09:42:10;;;;;;;15.80;9.83;;;9.90;1.00;;;;;;5028677;28;20930;-68
2022/09/30 09:45:02;;;;;;;14.87;10.23;;;9.80;1.00;;;;;;5029108;28;20464;-68
2022/09/30 09:47:28;;;;;;;16.00;10.43;;;9.70;1.00;;;;;;5018589;28;20469;-66
2022/09/30 09:49:59;;;;;;;16.90;10.60;;;9.80;1.00;;;;;;5029389;28;20493;-68
2022/09/30 09:52:48;;;;;;;17.00;10.03;;;9.90;1.00;;;;;;5028654;28;20191;-68
2022/09/30 09:55:18;;;;;;;13.00;9.47;;;10.10;1.00;;;;;;5029544;28;20398;-69
2022/09/30 09:57:44;;;;;;;21.50;11.07;;;10.00;1.00;;;;;;5029190;28;20423;-67
2022/09/30 10:03:11;;;;;;;19.90;10.40;;;10.40;1.00;;;;;;5032241;28;20183;-67
2022/09/30 10:05:40;;;;;;;15.00;10.17;;;10.60;1.00;;;;;;5033192;28;20420;-68
2022/09/30 10:08:14;;;;;;;16.23;9.73;;;10.70;99.90;;;;;;5032645;28;20494;-69
2022/09/30 10:11:04;;;;;;;18.33;10.50;;;10.60;1.00;;;;;;5032765;28;20394;-68
2022/09/30 10:13:51;;;;;;;16.27;10.50;;;10.70;99.90;;;;;;5031984;28;20401;-69
2022/09/30 10:16:36;;;;;;;20.33;11.03;;;10.80;99.90;;;;;;5031913;28;20539;-69
2022/09/30 10:19:04;;;;;;;13.27;9.67;;;10.80;99.90;;;;;;5032713;28;20421;-68
2022/09/30 10:21:30;;;;;;;15.60;11.40;;;10.70;99.90;;;;;;5032552;28;20461;-68
2022/09/30 10:23:59;;;;;;;15.90;11.27;;;10.50;1.00;;;;;;5032701;28;20444;-70
2022/09/30 10:26:28;;;;;;;15.20;9.83;;;10.60;1.00;;;;;;5032543;28;20717;-69
2022/09/30 10:28:59;;;;;;;57.43;12.43;;;10.50;99.90;;;;;;5032248;28;20414;-69
2022/09/30 10:31:31;;;;;;;24.90;12.53;;;10.60;1.00;;;;;;5032203;28;20449;-69
2022/09/30 10:34:22;;;;;;;15.90;10.10;;;10.70;1.00;;;;;;5032488;28;20432;-70
2022/09/30 10:36:48;;;;;;;15.40;10.60;;;10.70;99.90;;;;;;5032192;28;20441;-70
2022/09/30 10:39:25;;;;;;;18.13;12.57;;;10.70;99.90;;;;;;5032674;28;20827;-69
2022/09/30 10:42:16;;;;;;;22.30;13.30;;;10.50;1.00;;;;;;5031657;28;20414;-69
2022/09/30 10:44:46;;;;;;;29.43;17.83;;;10.70;1.00;;;;;;5032519;28;20406;-67
2022/09/30 10:47:25;;;;;;;24.47;14.30;;;10.80;99.90;;;;;;5031995;28;20565;-69
2022/09/30 10:50:15;;;;;;;19.77;14.67;;;10.70;99.90;;;;;;5032340;28;20410;-67
2022/09/30 10:53:08;;;;;;;21.97;13.27;;;10.40;1.00;;;;;;5031663;28;20412;-69
2022/09/30 10:55:41;;;;;;;18.10;12.20;;;10.30;1.00;;;;;;5014853;28;20402;-69
2022/09/30 10:58:24;;;;;;;24.70;14.60;;;10.30;1.00;;;;;;5031480;28;20919;-68
2022/09/30 11:01:13;;;;;;;19.97;12.57;;;10.20;1.00;;;;;;5025881;28;20447;-68
2022/09/30 11:04:15;;;;;;;27.23;15.00;;;10.10;1.00;;;;;;5014657;28;20484;-68
2022/09/30 11:09:16;;;;;;;32.13;16.67;;;10.20;1.00;;;;;;4990521;28;20866;-68
2022/09/30 11:11:54;;;;;;;28.87;15.87;;;10.20;1.00;;;;;;4997674;28;20781;-67
2022/09/30 11:14:49;;;;;;;23.40;13.03;;;10.30;1.00;;;;;;4991174;28;20430;-67
2022/09/30 11:18:04;;;;;;;22.13;13.80;;;10.40;1.00;;;;;;4984634;28;20508;-66
2022/09/30 11:20:31;;;;;;;20.93;13.90;;;10.40;1.00;;;;;;4937459;29;20426;-65
2022/09/30 11:23:26;;;;;;;18.87;13.43;;;10.50;1.00;;;;;;4950892;28;20418;-65
2022/09/30 11:26:18;;;;;;;23.97;17.13;;;10.50;1.00;;;;;;4937418;28;20516;-65
2022/09/30 11:29:21;;;;;;;26.57;17.87;;;10.60;1.00;;;;;;4934219;29;20462;-66
2022/09/30 11:31:55;;;;;;;21.80;14.63;;;10.70;1.00;;;;;;4946062;28;20422;-65
2022/09/30 11:34:24;;;;;;;23.63;14.23;;;10.90;1.00;;;;;;4950101;28;20410;-65
2022/09/30 11:37:01;;;;;;;21.77;13.70;;;10.90;1.00;;;;;;4951117;29;20494;-66
2022/09/30 11:39:45;;;;;;;38.43;18.33;;;10.90;1.00;;;;;;4950560;28;20406;-66
2022/09/30 11:42:23;;;;;;;20.80;15.23;;;10.90;1.00;;;;;;4950050;28;20469;-66
2022/09/30 11:45:11;;;;;;;29.43;18.50;;;11.00;1.00;;;;;;4950176;28;20439;-66
2022/09/30 11:48:01;;;;;;;24.50;15.20;;;11.20;1.00;;;;;;4951087;29;20466;-65
2022/09/30 11:51:09;;;;;;;23.57;15.00;;;11.30;1.00;;;;;;4963910;28;20411;-66
2022/09/30 11:53:47;;;;;;;23.73;14.80;;;11.20;1.00;;;;;;5010957;28;20410;-66
2022/09/30 11:56:31;;;;;;;22.63;15.50;;;11.20;1.00;;;;;;5010900;28;20943;-66
2022/09/30 11:59:00;;;;;;;26.10;15.43;;;11.30;1.00;;;;;;5010681;28;20423;-67
2022/09/30 12:01:42;;;;;;;48.77;18.83;;;11.40;1.00;;;;;;5010078;28;20413;-66
2022/09/30 12:04:14;;;;;;;31.50;16.80;;;11.40;1.00;;;;;;5010999;28;20453;-66
2022/09/30 12:06:48;;;;;;;35.97;19.27;;;11.50;99.90;;;;;;5010961;28;20535;-66
2022/09/30 12:09:30;;;;;;;30.17;19.83;;;11.50;99.90;;;;;;5009018;28;20415;-66
2022/09/30 12:12:01;;;;;;;90.63;29.50;;;11.60;99.90;;;;;;5009752;28;21188;-65
2022/09/30 12:14:46;;;;;;;88.43;27.27;;;11.70;99.90;;;;;;5009761;28;20414;-66
2022/09/30 12:17:37;;;;;;;32.10;20.20;;;11.60;99.90;;;;;;5010218;28;20459;-67
2022/09/30 12:20:24;;;;;;;47.30;23.17;;;11.60;99.90;;;;;;5010524;28;20810;-67
2022/09/30 12:22:58;;;;;;;36.50;24.00;;;11.60;99.90;;;;;;5002861;28;20911;-65
2022/09/30 12:25:32;;;;;;;31.67;23.10;;;11.70;99.90;;;;;;5010089;28;20853;-67
2022/09/30 12:31:28;;;;;;;40.03;22.23;;;11.90;99.90;;;;;;5009831;28;20475;-66
2022/09/30 12:33:56;;;;;;;38.57;22.00;;;11.90;47.70;;;;;;5010161;28;20399;-66
2022/09/30 12:36:28;;;;;;;78.07;25.07;;;11.90;99.90;;;;;;5010506;28;20912;-66
2022/09/30 12:39:27;;;;;;;42.90;22.40;;;11.80;92.20;;;;;;5009778;28;20423;-66
2022/09/30 12:42:14;;;;;;;29.20;19.03;;;11.90;33.40;;;;;;5009653;28;20410;-66
2022/09/30 12:45:18;;;;;;;26.23;18.67;;;11.80;1.00;;;;;;5009975;28;20403;-66
2022/09/30 12:47:49;;;;;;;26.70;17.40;;;11.70;1.00;;;;;;5008007;28;20550;-66
2022/09/30 12:50:20;;;;;;;26.63;19.60;;;11.80;1.00;;;;;;5009927;28;20827;-67
2022/09/30 12:52:47;;;;;;;40.07;19.27;;;11.70;1.00;;;;;;5009608;28;20491;-66
2022/09/30 12:55:29;;;;;;;29.33;17.33;;;11.70;1.00;;;;;;5010054;28;20404;-67
2022/09/30 12:58:00;;;;;;;30.97;16.10;;;11.60;1.00;;;;;;5009555;28;20803;-66
2022/09/30 13:00:29;;;;;;;23.00;15.73;;;11.40;1.00;;;;;;5009580;28;20403;-66
2022/09/30 13:03:14;;;;;;;19.60;15.07;;;11.50;1.00;;;;;;5010204;28;20418;-66
2022/09/30 13:05:40;;;;;;;26.10;15.60;;;11.70;1.00;;;;;;5010515;28;20467;-66
2022/09/30 13:08:05;;;;;;;23.77;16.90;;;11.80;1.00;;;;;;5009520;28;20768;-66
2022/09/30 13:10:32;;;;;;;23.90;17.23;;;11.90;1.00;;;;;;5009634;28;20624;-66
2022/09/30 13:13:10;;;;;;;21.30;15.37;;;12.10;99.90;;;;;;5009706;28;20651;-66
2022/09/30 13:15:41;;;;;;;21.80;15.57;;;12.20;99.90;;;;;;5010304;28;20403;-67
2022/09/30 13:18:18;;;;;;;17.77;14.70;;;12.10;99.90;;;;;;5010019;28;20463;-66
2022/09/30 13:21:07;;;;;;;29.03;15.43;;;12.20;1.00;;;;;;5009348;28;20442;-65
2022/09/30 13:23:41;;;;;;;23.00;15.10;;;12.00;1.00;;;;;;5010104;28;20465;-66
2022/09/30 13:26:31;;;;;;;22.77;15.73;;;12.00;1.00;;;;;;5009825;28;20410;-67
2022/09/30 13:28:59;;;;;;;35.30;15.80;;;12.20;1.00;;;;;;5009828;28;20858;-66
2022/09/30 13:31:30;;;;;;;47.87;18.00;;;12.30;99.90;;;;;;5009390;28;20764;-65